CKS9135 KLUF-KNLC
Flight info
| Callsign | CKS9135 |
|---|---|
| Flight time | 1h 14m |
| Altitude | 38000 |
| Route | NORDY1 NORDY BLH PSP PMD EHF |
| Aircraft | A333/H-SDE3GHIJ2J3J5M1RVWXY/LB2D1 |
Departure
| Time | 2026-04-15 03:23 |
|---|---|
| Airport | Luke Air Force Base (KLUF) |
Arrival
| Time | 2026-04-15 04:37 |
|---|---|
| Airport | Lemoore Naval Air Station (Reeves Field) Airport (KNLC) |
| Time | Latitude | Longitude | Altitude | Speed | Heading |
|---|---|---|---|---|---|
| 2026-04-15 03:06 | 33.53188 | -112.37872 | 1087 ft | 0 kts | 109° |
| 2026-04-15 03:07 | 33.53188 | -112.37873 | 1087 ft | 0 kts | 109° |
| 2026-04-15 03:08 | 33.53189 | -112.37873 | 1087 ft | 0 kts | 109° |
| 2026-04-15 03:16 | 33.53189 | -112.37865 | 1087 ft | 4 kts | 89° |
| 2026-04-15 03:17 | 33.53235 | -112.37799 | 1087 ft | 16 kts | 21° |
| 2026-04-15 03:17 | 33.53327 | -112.37836 | 1087 ft | 10 kts | 331° |
| 2026-04-15 03:17 | 33.53371 | -112.37828 | 1088 ft | 7 kts | 41° |
| 2026-04-15 03:17 | 33.53412 | -112.37736 | 1089 ft | 19 kts | 63° |
| 2026-04-15 03:18 | 33.53481 | -112.37578 | 1088 ft | 23 kts | 62° |
| 2026-04-15 03:18 | 33.53552 | -112.37413 | 1089 ft | 22 kts | 62° |
| 2026-04-15 03:18 | 33.53625 | -112.37248 | 1087 ft | 23 kts | 61° |
| 2026-04-15 03:18 | 33.53699 | -112.37086 | 1088 ft | 22 kts | 61° |
| 2026-04-15 03:19 | 33.53770 | -112.36922 | 1088 ft | 22 kts | 62° |
| 2026-04-15 03:19 | 33.53833 | -112.36786 | 1091 ft | 11 kts | 51° |
| 2026-04-15 03:19 | 33.53922 | -112.36770 | 1092 ft | 16 kts | 357° |
| 2026-04-15 03:19 | 33.54033 | -112.36775 | 1093 ft | 16 kts | 358° |
| 2026-04-15 03:20 | 33.54144 | -112.36781 | 1093 ft | 17 kts | 357° |
| 2026-04-15 03:20 | 33.54273 | -112.36788 | 1093 ft | 19 kts | 358° |
| 2026-04-15 03:20 | 33.54413 | -112.36794 | 1091 ft | 20 kts | 358° |
| 2026-04-15 03:20 | 33.54536 | -112.36798 | 1089 ft | 18 kts | 358° |
| 2026-04-15 03:21 | 33.54641 | -112.36795 | 1089 ft | 8 kts | 325° |
| 2026-04-15 03:21 | 33.54626 | -112.36858 | 1088 ft | 1 kts | 223° |
| 2026-04-15 03:21 | 33.54617 | -112.36869 | 1088 ft | 3 kts | 223° |
| 2026-04-15 03:22 | 33.54612 | -112.36874 | 1088 ft | 0 kts | 223° |
| 2026-04-15 03:22 | 33.54610 | -112.36876 | 1088 ft | 3 kts | 223° |
| 2026-04-15 03:22 | 33.54451 | -112.37051 | 1091 ft | 61 kts | 222° |
| 2026-04-15 03:23 | 33.53993 | -112.37552 | 1083 ft | 116 kts | 222° |
| 2026-04-15 03:23 | 33.53282 | -112.38334 | 1080 ft | 161 kts | 223° |
| 2026-04-15 03:23 | 33.52424 | -112.39268 | 1602 ft | 165 kts | 220° |
| 2026-04-15 03:23 | 33.51593 | -112.40246 | 2247 ft | 167 kts | 227° |
| 2026-04-15 03:24 | 33.50789 | -112.41241 | 2888 ft | 169 kts | 228° |
| 2026-04-15 03:24 | 33.49927 | -112.42296 | 3145 ft | 186 kts | 227° |
| 2026-04-15 03:24 | 33.48964 | -112.43453 | 3346 ft | 206 kts | 227° |
| 2026-04-15 03:24 | 33.47897 | -112.44717 | 3511 ft | 226 kts | 227° |
| 2026-04-15 03:25 | 33.46727 | -112.46090 | 3712 ft | 246 kts | 226° |
| 2026-04-15 03:25 | 33.45455 | -112.47579 | 4009 ft | 263 kts | 226° |
| 2026-04-15 03:25 | 33.44157 | -112.49144 | 4670 ft | 265 kts | 232° |
| 2026-04-15 03:25 | 33.43315 | -112.51075 | 5359 ft | 265 kts | 261° |
| 2026-04-15 03:26 | 33.43488 | -112.53236 | 6044 ft | 265 kts | 295° |
| 2026-04-15 03:26 | 33.44595 | -112.54992 | 6770 ft | 267 kts | 316° |
| 2026-04-15 03:26 | 33.45990 | -112.56475 | 7515 ft | 269 kts | 319° |
| 2026-04-15 03:26 | 33.47246 | -112.58148 | 8240 ft | 274 kts | 302° |
| 2026-04-15 03:27 | 33.47869 | -112.60315 | 8955 ft | 282 kts | 276° |
| 2026-04-15 03:27 | 33.47584 | -112.62647 | 9637 ft | 291 kts | 248° |
| 2026-04-15 03:27 | 33.46454 | -112.64680 | 10244 ft | 300 kts | 230° |
| 2026-04-15 03:27 | 33.44995 | -112.66563 | 10537 ft | 318 kts | 227° |
| 2026-04-15 03:28 | 33.43954 | -112.67841 | 10706 ft | 330 kts | 227° |
| 2026-04-15 03:28 | 33.41901 | -112.70653 | 11189 ft | 345 kts | 238° |
| 2026-04-15 03:28 | 33.40920 | -112.73269 | 11771 ft | 346 kts | 258° |
| 2026-04-15 03:28 | 33.40675 | -112.76121 | 12436 ft | 345 kts | 271° |
| 2026-04-15 03:29 | 33.40785 | -112.78993 | 13108 ft | 346 kts | 276° |
| 2026-04-15 03:29 | 33.40957 | -112.80903 | 13525 ft | 348 kts | 278° |
| 2026-04-15 03:29 | 33.41290 | -112.83782 | 14089 ft | 351 kts | 279° |
| 2026-04-15 03:29 | 33.41656 | -112.86688 | 14630 ft | 354 kts | 280° |
| 2026-04-15 03:30 | 33.42017 | -112.89613 | 15183 ft | 357 kts | 279° |
| 2026-04-15 03:30 | 33.42360 | -112.92563 | 15737 ft | 359 kts | 279° |
| 2026-04-15 03:30 | 33.42686 | -112.95534 | 16303 ft | 361 kts | 279° |
| 2026-04-15 03:30 | 33.42999 | -112.98528 | 16829 ft | 364 kts | 278° |
| 2026-04-15 03:31 | 33.43305 | -113.01544 | 17351 ft | 366 kts | 278° |
| 2026-04-15 03:31 | 33.43610 | -113.04590 | 17884 ft | 368 kts | 278° |
| 2026-04-15 03:31 | 33.43913 | -113.07648 | 18379 ft | 371 kts | 278° |
| 2026-04-15 03:31 | 33.44219 | -113.10726 | 18818 ft | 373 kts | 279° |
| 2026-04-15 03:32 | 33.44526 | -113.13820 | 19299 ft | 374 kts | 279° |
| 2026-04-15 03:32 | 33.44833 | -113.16924 | 19752 ft | 376 kts | 279° |
| 2026-04-15 03:32 | 33.45143 | -113.20043 | 20178 ft | 378 kts | 279° |
| 2026-04-15 03:32 | 33.45453 | -113.23177 | 20611 ft | 381 kts | 279° |
| 2026-04-15 03:33 | 33.45765 | -113.26333 | 21040 ft | 383 kts | 279° |
| 2026-04-15 03:33 | 33.46078 | -113.29510 | 21476 ft | 385 kts | 280° |
| 2026-04-15 03:33 | 33.46392 | -113.32705 | 21906 ft | 387 kts | 280° |
| 2026-04-15 03:33 | 33.46703 | -113.35879 | 22345 ft | 389 kts | 280° |
| 2026-04-15 03:34 | 33.47020 | -113.39119 | 22737 ft | 393 kts | 280° |
| 2026-04-15 03:34 | 33.47338 | -113.42374 | 23174 ft | 394 kts | 281° |
| 2026-04-15 03:34 | 33.47657 | -113.45650 | 23585 ft | 395 kts | 280° |
| 2026-04-15 03:34 | 33.47973 | -113.48926 | 23959 ft | 397 kts | 280° |
| 2026-04-15 03:35 | 33.48290 | -113.52211 | 24308 ft | 398 kts | 279° |
| 2026-04-15 03:35 | 33.48608 | -113.55518 | 24683 ft | 399 kts | 279° |
| 2026-04-15 03:35 | 33.48926 | -113.58828 | 25041 ft | 401 kts | 279° |
| 2026-04-15 03:35 | 33.49244 | -113.62149 | 25389 ft | 402 kts | 279° |
| 2026-04-15 03:36 | 33.49562 | -113.65481 | 25736 ft | 403 kts | 279° |
| 2026-04-15 03:36 | 33.49876 | -113.68781 | 26075 ft | 404 kts | 279° |
| 2026-04-15 03:36 | 33.50195 | -113.72134 | 26411 ft | 406 kts | 279° |
| 2026-04-15 03:36 | 33.50514 | -113.75501 | 26729 ft | 407 kts | 279° |
| 2026-04-15 03:37 | 33.50833 | -113.78880 | 27082 ft | 408 kts | 278° |
| 2026-04-15 03:37 | 33.51151 | -113.82260 | 27398 ft | 409 kts | 278° |
| 2026-04-15 03:37 | 33.51469 | -113.85647 | 27728 ft | 410 kts | 278° |
| 2026-04-15 03:37 | 33.51788 | -113.89054 | 28035 ft | 412 kts | 278° |
| 2026-04-15 03:38 | 33.52107 | -113.92469 | 28347 ft | 413 kts | 278° |
| 2026-04-15 03:38 | 33.52425 | -113.95893 | 28645 ft | 415 kts | 278° |
| 2026-04-15 03:38 | 33.52744 | -113.99334 | 28942 ft | 416 kts | 278° |
| 2026-04-15 03:38 | 33.53063 | -114.02787 | 29244 ft | 418 kts | 278° |
| 2026-04-15 03:39 | 33.53383 | -114.06253 | 29552 ft | 419 kts | 278° |
| 2026-04-15 03:39 | 33.53702 | -114.09733 | 29821 ft | 421 kts | 278° |
| 2026-04-15 03:39 | 33.54023 | -114.13234 | 30096 ft | 423 kts | 278° |
| 2026-04-15 03:39 | 33.54344 | -114.16744 | 30353 ft | 424 kts | 278° |
| 2026-04-15 03:40 | 33.54664 | -114.20263 | 30614 ft | 425 kts | 277° |
| 2026-04-15 03:40 | 33.54980 | -114.23745 | 30871 ft | 426 kts | 277° |
| 2026-04-15 03:40 | 33.55300 | -114.27287 | 31108 ft | 428 kts | 277° |
| 2026-04-15 03:40 | 33.55620 | -114.30836 | 31348 ft | 429 kts | 277° |
| 2026-04-15 03:41 | 33.55940 | -114.34397 | 31591 ft | 430 kts | 277° |
| 2026-04-15 03:41 | 33.56259 | -114.37959 | 31850 ft | 431 kts | 277° |
| 2026-04-15 03:41 | 33.56578 | -114.41533 | 32101 ft | 431 kts | 277° |
| 2026-04-15 03:41 | 33.56896 | -114.45104 | 32441 ft | 430 kts | 277° |
| 2026-04-15 03:42 | 33.57210 | -114.48662 | 32811 ft | 428 kts | 277° |
| 2026-04-15 03:42 | 33.57524 | -114.52213 | 33166 ft | 427 kts | 277° |
| 2026-04-15 03:42 | 33.57835 | -114.55744 | 33493 ft | 425 kts | 277° |
| 2026-04-15 03:42 | 33.58143 | -114.59261 | 33814 ft | 424 kts | 276° |
| 2026-04-15 03:43 | 33.58451 | -114.62773 | 34104 ft | 423 kts | 276° |
| 2026-04-15 03:43 | 33.58757 | -114.66285 | 34339 ft | 422 kts | 276° |
| 2026-04-15 03:43 | 33.59062 | -114.69788 | 34556 ft | 422 kts | 276° |
| 2026-04-15 03:43 | 33.59362 | -114.73247 | 34771 ft | 422 kts | 276° |
| 2026-04-15 03:44 | 33.59777 | -114.76737 | 34976 ft | 422 kts | 280° |
| 2026-04-15 03:44 | 33.60314 | -114.80192 | 35206 ft | 421 kts | 281° |
| 2026-04-15 03:44 | 33.60881 | -114.83642 | 35411 ft | 421 kts | 281° |
| 2026-04-15 03:44 | 33.61463 | -114.87086 | 35615 ft | 421 kts | 281° |
| 2026-04-15 03:45 | 33.62053 | -114.90524 | 35819 ft | 421 kts | 281° |
| 2026-04-15 03:45 | 33.62644 | -114.93962 | 36009 ft | 421 kts | 281° |
| 2026-04-15 03:45 | 33.63234 | -114.97409 | 36191 ft | 421 kts | 281° |
| 2026-04-15 03:45 | 33.63822 | -115.00856 | 36366 ft | 421 kts | 281° |
| 2026-04-15 03:46 | 33.64408 | -115.04308 | 36527 ft | 422 kts | 281° |
| 2026-04-15 03:46 | 33.64992 | -115.07760 | 36700 ft | 422 kts | 281° |
| 2026-04-15 03:46 | 33.65573 | -115.11204 | 36896 ft | 421 kts | 281° |
| 2026-04-15 03:46 | 33.66153 | -115.14654 | 37075 ft | 421 kts | 281° |
| 2026-04-15 03:47 | 33.66723 | -115.18051 | 37264 ft | 421 kts | 281° |
| 2026-04-15 03:47 | 33.67300 | -115.21494 | 37437 ft | 421 kts | 281° |
| 2026-04-15 03:47 | 33.67876 | -115.24935 | 37621 ft | 420 kts | 281° |
| 2026-04-15 03:47 | 33.68451 | -115.28377 | 37793 ft | 420 kts | 281° |
| 2026-04-15 03:48 | 33.69024 | -115.31815 | 37950 ft | 420 kts | 281° |
| 2026-04-15 03:48 | 33.69597 | -115.35259 | 38002 ft | 422 kts | 281° |
| 2026-04-15 03:48 | 33.70752 | -115.42219 | 38004 ft | 425 kts | 281° |
| 2026-04-15 03:49 | 33.71902 | -115.49166 | 38004 ft | 424 kts | 281° |
| 2026-04-15 03:49 | 33.73045 | -115.56108 | 38017 ft | 424 kts | 281° |
| 2026-04-15 03:50 | 33.74189 | -115.63072 | 38005 ft | 426 kts | 281° |
| 2026-04-15 03:50 | 33.75332 | -115.70065 | 38013 ft | 426 kts | 281° |
| 2026-04-15 03:51 | 33.76473 | -115.77063 | 38004 ft | 427 kts | 281° |
| 2026-04-15 03:51 | 33.77604 | -115.84028 | 38019 ft | 427 kts | 281° |
| 2026-04-15 03:52 | 33.78737 | -115.91033 | 38031 ft | 427 kts | 281° |
| 2026-04-15 03:52 | 33.79865 | -115.98032 | 38028 ft | 427 kts | 281° |
| 2026-04-15 03:53 | 33.80990 | -116.05041 | 38029 ft | 426 kts | 281° |
| 2026-04-15 03:53 | 33.82110 | -116.12044 | 38032 ft | 426 kts | 281° |
| 2026-04-15 03:54 | 33.83227 | -116.19052 | 38022 ft | 427 kts | 281° |
| 2026-04-15 03:55 | 33.84888 | -116.29531 | 38005 ft | 427 kts | 281° |
| 2026-04-15 03:55 | 33.85999 | -116.36570 | 37994 ft | 428 kts | 281° |
| 2026-04-15 03:56 | 33.87539 | -116.43468 | 38003 ft | 427 kts | 292° |
| 2026-04-15 03:56 | 33.90236 | -116.49865 | 38005 ft | 428 kts | 298° |
| 2026-04-15 03:57 | 33.93190 | -116.56105 | 37987 ft | 429 kts | 299° |
| 2026-04-15 03:57 | 33.96164 | -116.62280 | 38017 ft | 429 kts | 300° |
| 2026-04-15 03:58 | 33.99146 | -116.68523 | 38006 ft | 430 kts | 299° |
| 2026-04-15 03:58 | 34.02106 | -116.74770 | 38027 ft | 425 kts | 299° |
| 2026-04-15 03:59 | 34.05012 | -116.80928 | 38034 ft | 420 kts | 299° |
| 2026-04-15 03:59 | 34.07903 | -116.87064 | 38039 ft | 420 kts | 299° |
| 2026-04-15 04:00 | 34.10772 | -116.93165 | 38060 ft | 421 kts | 299° |
| 2026-04-15 04:00 | 34.13660 | -116.99315 | 38062 ft | 421 kts | 300° |
| 2026-04-15 04:01 | 34.16546 | -117.05468 | 38063 ft | 421 kts | 300° |
| 2026-04-15 04:01 | 34.19423 | -117.11611 | 38083 ft | 420 kts | 300° |
| 2026-04-15 04:02 | 34.22299 | -117.17765 | 38043 ft | 421 kts | 300° |
| 2026-04-15 04:02 | 34.25177 | -117.23937 | 38096 ft | 422 kts | 300° |
| 2026-04-15 04:03 | 34.28065 | -117.30141 | 38082 ft | 423 kts | 300° |
| 2026-04-15 04:03 | 34.30930 | -117.36305 | 38076 ft | 424 kts | 300° |
| 2026-04-15 04:04 | 34.33816 | -117.42525 | 38067 ft | 424 kts | 300° |
| 2026-04-15 04:04 | 34.36699 | -117.48750 | 38074 ft | 424 kts | 300° |
| 2026-04-15 04:05 | 34.39574 | -117.54968 | 38065 ft | 423 kts | 300° |
| 2026-04-15 04:05 | 34.42443 | -117.61185 | 38074 ft | 423 kts | 301° |
| 2026-04-15 04:06 | 34.45308 | -117.67403 | 38060 ft | 423 kts | 300° |
| 2026-04-15 04:06 | 34.48177 | -117.73642 | 38080 ft | 423 kts | 300° |
| 2026-04-15 04:07 | 34.51038 | -117.79876 | 38082 ft | 423 kts | 300° |
| 2026-04-15 04:07 | 34.53884 | -117.86085 | 38112 ft | 423 kts | 300° |
| 2026-04-15 04:08 | 34.56743 | -117.92337 | 38107 ft | 423 kts | 300° |
| 2026-04-15 04:08 | 34.59609 | -117.98615 | 37870 ft | 430 kts | 301° |
| 2026-04-15 04:08 | 34.61065 | -118.01805 | 37587 ft | 432 kts | 301° |
| 2026-04-15 04:09 | 34.62568 | -118.04958 | 37326 ft | 431 kts | 306° |
| 2026-04-15 04:09 | 34.64429 | -118.07730 | 37032 ft | 427 kts | 313° |
| 2026-04-15 04:09 | 34.66450 | -118.10358 | 36612 ft | 424 kts | 315° |
| 2026-04-15 04:09 | 34.68521 | -118.12910 | 36034 ft | 425 kts | 316° |
| 2026-04-15 04:10 | 34.70637 | -118.15440 | 35465 ft | 427 kts | 317° |
| 2026-04-15 04:10 | 34.72772 | -118.17964 | 34873 ft | 429 kts | 317° |
| 2026-04-15 04:10 | 34.74915 | -118.20494 | 34257 ft | 431 kts | 318° |
| 2026-04-15 04:10 | 34.77075 | -118.23054 | 33562 ft | 434 kts | 318° |
| 2026-04-15 04:11 | 34.79238 | -118.25630 | 32907 ft | 435 kts | 317° |
| 2026-04-15 04:11 | 34.81367 | -118.28176 | 32269 ft | 435 kts | 317° |
| 2026-04-15 04:11 | 34.83534 | -118.30774 | 31592 ft | 437 kts | 317° |
| 2026-04-15 04:11 | 34.85699 | -118.33377 | 31062 ft | 435 kts | 317° |
| 2026-04-15 04:12 | 34.87839 | -118.35955 | 30612 ft | 431 kts | 317° |
| 2026-04-15 04:12 | 34.89963 | -118.38515 | 30106 ft | 428 kts | 318° |
| 2026-04-15 04:12 | 34.92071 | -118.41057 | 29612 ft | 425 kts | 317° |
| 2026-04-15 04:12 | 34.94159 | -118.43576 | 29142 ft | 420 kts | 317° |
| 2026-04-15 04:13 | 34.96227 | -118.46072 | 28670 ft | 416 kts | 317° |
| 2026-04-15 04:13 | 34.98275 | -118.48544 | 28192 ft | 412 kts | 317° |
| 2026-04-15 04:13 | 35.00303 | -118.50994 | 27728 ft | 408 kts | 317° |
| 2026-04-15 04:13 | 35.02314 | -118.53425 | 27265 ft | 405 kts | 317° |
| 2026-04-15 04:14 | 35.04284 | -118.55808 | 26786 ft | 402 kts | 317° |
| 2026-04-15 04:14 | 35.06264 | -118.58205 | 26314 ft | 400 kts | 317° |
| 2026-04-15 04:14 | 35.08230 | -118.60588 | 25853 ft | 398 kts | 317° |
| 2026-04-15 04:14 | 35.10191 | -118.62966 | 25362 ft | 396 kts | 316° |
| 2026-04-15 04:15 | 35.12138 | -118.65329 | 24891 ft | 393 kts | 316° |
| 2026-04-15 04:15 | 35.14071 | -118.67677 | 24413 ft | 391 kts | 316° |
| 2026-04-15 04:15 | 35.15996 | -118.70017 | 23912 ft | 389 kts | 316° |
| 2026-04-15 04:15 | 35.17913 | -118.72346 | 23408 ft | 388 kts | 316° |
| 2026-04-15 04:16 | 35.19819 | -118.74666 | 22905 ft | 385 kts | 316° |
| 2026-04-15 04:16 | 35.21713 | -118.76975 | 22449 ft | 382 kts | 316° |
| 2026-04-15 04:16 | 35.22954 | -118.78487 | 22148 ft | 379 kts | 316° |
| 2026-04-15 04:16 | 35.24817 | -118.80759 | 21697 ft | 376 kts | 316° |
| 2026-04-15 04:17 | 35.26661 | -118.83008 | 21250 ft | 373 kts | 316° |
| 2026-04-15 04:17 | 35.28497 | -118.85250 | 20797 ft | 371 kts | 316° |
| 2026-04-15 04:17 | 35.30316 | -118.87473 | 20351 ft | 368 kts | 316° |
| 2026-04-15 04:17 | 35.32128 | -118.89688 | 19907 ft | 366 kts | 316° |
| 2026-04-15 04:18 | 35.33924 | -118.91885 | 19467 ft | 364 kts | 316° |
| 2026-04-15 04:18 | 35.35712 | -118.94075 | 19020 ft | 363 kts | 315° |
| 2026-04-15 04:18 | 35.37492 | -118.96255 | 18568 ft | 361 kts | 315° |
| 2026-04-15 04:18 | 35.39268 | -118.98432 | 18104 ft | 359 kts | 315° |
| 2026-04-15 04:19 | 35.41030 | -119.00594 | 17661 ft | 356 kts | 315° |
| 2026-04-15 04:19 | 35.42772 | -119.02732 | 17244 ft | 353 kts | 315° |
| 2026-04-15 04:19 | 35.44484 | -119.04835 | 16809 ft | 351 kts | 315° |
| 2026-04-15 04:19 | 35.46201 | -119.06945 | 16364 ft | 348 kts | 315° |
| 2026-04-15 04:20 | 35.47927 | -119.09015 | 15925 ft | 346 kts | 319° |
| 2026-04-15 04:20 | 35.49767 | -119.10912 | 15484 ft | 344 kts | 321° |
| 2026-04-15 04:20 | 35.51623 | -119.12751 | 15074 ft | 342 kts | 321° |
| 2026-04-15 04:20 | 35.53478 | -119.14566 | 14652 ft | 340 kts | 321° |
| 2026-04-15 04:21 | 35.55326 | -119.16366 | 14190 ft | 340 kts | 321° |
| 2026-04-15 04:21 | 35.57183 | -119.18172 | 13649 ft | 341 kts | 321° |
| 2026-04-15 04:21 | 35.59040 | -119.19977 | 13200 ft | 338 kts | 322° |
| 2026-04-15 04:21 | 35.60878 | -119.21764 | 12782 ft | 335 kts | 321° |
| 2026-04-15 04:22 | 35.62697 | -119.23532 | 12359 ft | 332 kts | 321° |
| 2026-04-15 04:22 | 35.64479 | -119.25265 | 11941 ft | 329 kts | 321° |
| 2026-04-15 04:22 | 35.66268 | -119.27006 | 11537 ft | 327 kts | 321° |
| 2026-04-15 04:22 | 35.68034 | -119.28726 | 11302 ft | 318 kts | 321° |
| 2026-04-15 04:23 | 35.69730 | -119.30378 | 11225 ft | 304 kts | 321° |
| 2026-04-15 04:23 | 35.71357 | -119.31964 | 11091 ft | 293 kts | 321° |
| 2026-04-15 04:23 | 35.72930 | -119.33498 | 10956 ft | 283 kts | 321° |
| 2026-04-15 04:23 | 35.74454 | -119.34985 | 10831 ft | 275 kts | 321° |
| 2026-04-15 04:24 | 35.75941 | -119.36437 | 10618 ft | 272 kts | 321° |
| 2026-04-15 04:24 | 35.77426 | -119.37888 | 10280 ft | 273 kts | 321° |
| 2026-04-15 04:24 | 35.78913 | -119.39341 | 9967 ft | 273 kts | 321° |
| 2026-04-15 04:24 | 35.80401 | -119.40795 | 9636 ft | 273 kts | 322° |
| 2026-04-15 04:25 | 35.81884 | -119.42246 | 9344 ft | 271 kts | 322° |
| 2026-04-15 04:25 | 35.83358 | -119.43688 | 9049 ft | 270 kts | 322° |
| 2026-04-15 04:25 | 35.84828 | -119.45127 | 8739 ft | 269 kts | 322° |
| 2026-04-15 04:25 | 35.86289 | -119.46558 | 8438 ft | 267 kts | 322° |
| 2026-04-15 04:26 | 35.87724 | -119.47965 | 8138 ft | 266 kts | 322° |
| 2026-04-15 04:26 | 35.89173 | -119.49385 | 7828 ft | 265 kts | 322° |
| 2026-04-15 04:26 | 35.90615 | -119.50799 | 7533 ft | 264 kts | 322° |
| 2026-04-15 04:26 | 35.92051 | -119.52209 | 7243 ft | 263 kts | 322° |
| 2026-04-15 04:27 | 35.93484 | -119.53617 | 6956 ft | 263 kts | 322° |
| 2026-04-15 04:27 | 35.94914 | -119.55021 | 6641 ft | 262 kts | 321° |
| 2026-04-15 04:27 | 35.96339 | -119.56422 | 6328 ft | 262 kts | 321° |
| 2026-04-15 04:27 | 35.97761 | -119.57820 | 6018 ft | 260 kts | 321° |
| 2026-04-15 04:28 | 35.99174 | -119.59210 | 5707 ft | 259 kts | 321° |
| 2026-04-15 04:28 | 36.00580 | -119.60594 | 5410 ft | 258 kts | 321° |
| 2026-04-15 04:28 | 36.01984 | -119.61976 | 5122 ft | 257 kts | 321° |
| 2026-04-15 04:28 | 36.03364 | -119.63336 | 4825 ft | 256 kts | 321° |
| 2026-04-15 04:29 | 36.04754 | -119.64706 | 4525 ft | 255 kts | 322° |
| 2026-04-15 04:29 | 36.06138 | -119.66071 | 4223 ft | 254 kts | 322° |
| 2026-04-15 04:29 | 36.07459 | -119.67512 | 3917 ft | 253 kts | 312° |
| 2026-04-15 04:29 | 36.08352 | -119.69381 | 3618 ft | 255 kts | 292° |
| 2026-04-15 04:30 | 36.08872 | -119.71474 | 3349 ft | 253 kts | 287° |
| 2026-04-15 04:30 | 36.09305 | -119.73549 | 3216 ft | 244 kts | 286° |
| 2026-04-15 04:30 | 36.09716 | -119.75544 | 3115 ft | 234 kts | 286° |
| 2026-04-15 04:30 | 36.10111 | -119.77437 | 3023 ft | 225 kts | 286° |
| 2026-04-15 04:31 | 36.10499 | -119.79280 | 2858 ft | 219 kts | 287° |
| 2026-04-15 04:31 | 36.10884 | -119.81090 | 2620 ft | 217 kts | 287° |
| 2026-04-15 04:31 | 36.11383 | -119.82838 | 2386 ft | 213 kts | 300° |
| 2026-04-15 04:31 | 36.12253 | -119.84236 | 2311 ft | 199 kts | 320° |
| 2026-04-15 04:32 | 36.13375 | -119.85130 | 2227 ft | 186 kts | 334° |
| 2026-04-15 04:32 | 36.14520 | -119.85786 | 2126 ft | 177 kts | 337° |
| 2026-04-15 04:32 | 36.15627 | -119.86382 | 1945 ft | 172 kts | 338° |
| 2026-04-15 04:32 | 36.16722 | -119.86970 | 1808 ft | 170 kts | 338° |
| 2026-04-15 04:33 | 36.17808 | -119.87557 | 1799 ft | 170 kts | 338° |
| 2026-04-15 04:33 | 36.18889 | -119.88146 | 1799 ft | 169 kts | 337° |
| 2026-04-15 04:33 | 36.19952 | -119.88726 | 1801 ft | 160 kts | 338° |
| 2026-04-15 04:33 | 36.20903 | -119.89251 | 1799 ft | 139 kts | 338° |
| 2026-04-15 04:34 | 36.21740 | -119.89711 | 1811 ft | 127 kts | 338° |
| 2026-04-15 04:34 | 36.22542 | -119.90150 | 1807 ft | 128 kts | 338° |
| 2026-04-15 04:34 | 36.23368 | -119.90602 | 1715 ft | 131 kts | 338° |
| 2026-04-15 04:34 | 36.24200 | -119.91061 | 1511 ft | 130 kts | 338° |
| 2026-04-15 04:35 | 36.25021 | -119.91528 | 1360 ft | 130 kts | 338° |
| 2026-04-15 04:35 | 36.25849 | -119.91987 | 1160 ft | 130 kts | 338° |
| 2026-04-15 04:35 | 36.26692 | -119.92416 | 998 ft | 132 kts | 337° |
| 2026-04-15 04:35 | 36.27531 | -119.92890 | 808 ft | 133 kts | 337° |
| 2026-04-15 04:36 | 36.28375 | -119.93366 | 664 ft | 133 kts | 336° |
| 2026-04-15 04:36 | 36.29224 | -119.93828 | 477 ft | 132 kts | 337° |
| 2026-04-15 04:36 | 36.30070 | -119.94294 | 324 ft | 133 kts | 337° |
| 2026-04-15 04:36 | 36.30904 | -119.94748 | 240 ft | 123 kts | 336° |
| 2026-04-15 04:37 | 36.31586 | -119.95121 | 240 ft | 93 kts | 336° |
| 2026-04-15 04:37 | 36.32104 | -119.95405 | 242 ft | 71 kts | 336° |
| 2026-04-15 04:37 | 36.32480 | -119.95612 | 240 ft | 54 kts | 336° |
| 2026-04-15 04:37 | 36.32716 | -119.95715 | 239 ft | 21 kts | 5° |
| 2026-04-15 04:38 | 36.32852 | -119.95694 | 240 ft | 18 kts | 7° |
| 2026-04-15 04:38 | 36.32875 | -119.95690 | 240 ft | 0 kts | 6° |
| 2026-04-15 04:38 | 36.32891 | -119.95688 | 241 ft | 4 kts | 6° |
| 2026-04-15 04:39 | 36.32930 | -119.95675 | 241 ft | 9 kts | 27° |
| 2026-04-15 04:39 | 36.32978 | -119.95584 | 242 ft | 17 kts | 65° |
| 2026-04-15 04:39 | 36.33022 | -119.95451 | 242 ft | 10 kts | 86° |
| 2026-04-15 04:39 | 36.32977 | -119.95355 | 242 ft | 16 kts | 123° |
| 2026-04-15 04:40 | 36.32992 | -119.95243 | 242 ft | 15 kts | 67° |
| 2026-04-15 04:40 | 36.32980 | -119.95195 | 242 ft | 7 kts | 152° |
| 2026-04-15 04:40 | 36.32963 | -119.95186 | 242 ft | 0 kts | 156° |
| 2026-04-15 04:49 | 36.32964 | -119.95186 | 242 ft | 0 kts | 156° |